sensor_id;sensor_type;location;lat;lon;timestamp;P1;P2;P0
36513;PMS5003;74739;46.796;9.824;2023-12-20T00:00:26;2;2;
36513;PMS5003;74739;46.796;9.824;2023-12-20T00:02:53;3;2;
36513;PMS5003;74739;46.796;9.824;2023-12-20T00:05:20;2;1;
36513;PMS5003;74739;46.796;9.824;2023-12-20T00:07:47;2;1;
36513;PMS5003;74739;46.796;9.824;2023-12-20T00:10:14;3;3;
36513;PMS5003;74739;46.796;9.824;2023-12-20T00:12:41;6;3;
36513;PMS5003;74739;46.796;9.824;2023-12-20T00:15:08;3;3;
36513;PMS5003;74739;46.796;9.824;2023-12-20T00:17:35;5;5;
36513;PMS5003;74739;46.796;9.824;2023-12-20T00:20:02;3;3;
36513;PMS5003;74739;46.796;9.824;2023-12-20T00:22:30;6;4;
36513;PMS5003;74739;46.796;9.824;2023-12-20T00:24:56;2;2;
36513;PMS5003;74739;46.796;9.824;2023-12-20T00:27:23;3;3;
36513;PMS5003;74739;46.796;9.824;2023-12-20T00:29:50;3;3;
36513;PMS5003;74739;46.796;9.824;2023-12-20T00:32:17;4;3;
36513;PMS5003;74739;46.796;9.824;2023-12-20T00:34:44;3;3;
36513;PMS5003;74739;46.796;9.824;2023-12-20T00:37:11;2;2;
36513;PMS5003;74739;46.796;9.824;2023-12-20T00:39:38;1;1;
36513;PMS5003;74739;46.796;9.824;2023-12-20T00:42:05;4;3;
36513;PMS5003;74739;46.796;9.824;2023-12-20T00:44:32;2;2;
36513;PMS5003;74739;46.796;9.824;2023-12-20T00:47:01;1;1;
36513;PMS5003;74739;46.796;9.824;2023-12-20T00:49:28;4;4;
36513;PMS5003;74739;46.796;9.824;2023-12-20T00:51:55;7;4;
36513;PMS5003;74739;46.796;9.824;2023-12-20T00:54:22;6;4;
36513;PMS5003;74739;46.796;9.824;2023-12-20T00:56:49;7;6;
36513;PMS5003;74739;46.796;9.824;2023-12-20T00:59:16;13;9;
36513;PMS5003;74739;46.796;9.824;2023-12-20T01:01:44;11;6;
36513;PMS5003;74739;46.796;9.824;2023-12-20T01:04:12;10;10;
36513;PMS5003;74739;46.796;9.824;2023-12-20T01:06:39;7;7;
36513;PMS5003;74739;46.796;9.824;2023-12-20T01:09:07;9;8;
36513;PMS5003;74739;46.796;9.824;2023-12-20T01:11:34;11;8;
36513;PMS5003;74739;46.796;9.824;2023-12-20T01:14:02;6;6;
36513;PMS5003;74739;46.796;9.824;2023-12-20T01:16:30;8;6;
36513;PMS5003;74739;46.796;9.824;2023-12-20T01:18:59;7;6;
36513;PMS5003;74739;46.796;9.824;2023-12-20T01:21:27;4;4;
36513;PMS5003;74739;46.796;9.824;2023-12-20T01:23:55;6;4;
36513;PMS5003;74739;46.796;9.824;2023-12-20T01:26:23;7;6;
36513;PMS5003;74739;46.796;9.824;2023-12-20T01:28:51;3;3;
36513;PMS5003;74739;46.796;9.824;2023-12-20T01:31:19;9;7;
36513;PMS5003;74739;46.796;9.824;2023-12-20T01:33:48;3;3;
36513;PMS5003;74739;46.796;9.824;2023-12-20T01:36:16;7;6;
36513;PMS5003;74739;46.796;9.824;2023-12-20T01:38:44;5;5;
36513;PMS5003;74739;46.796;9.824;2023-12-20T01:41:12;4;4;
36513;PMS5003;74739;46.796;9.824;2023-12-20T01:43:40;4;4;
36513;PMS5003;74739;46.796;9.824;2023-12-20T01:46:09;3;3;
36513;PMS5003;74739;46.796;9.824;2023-12-20T01:48:37;4;4;
36513;PMS5003;74739;46.796;9.824;2023-12-20T01:51:05;7;6;
36513;PMS5003;74739;46.796;9.824;2023-12-20T01:53:33;7;4;
36513;PMS5003;74739;46.796;9.824;2023-12-20T01:56:02;6;6;
36513;PMS5003;74739;46.796;9.824;2023-12-20T01:58:37;6;3;
36513;PMS5003;74739;46.796;9.824;2023-12-20T02:01:11;3;2;
36513;PMS5003;74739;46.796;9.824;2023-12-20T02:03:44;4;3;
36513;PMS5003;74739;46.796;9.824;2023-12-20T02:06:15;4;4;
36513;PMS5003;74739;46.796;9.824;2023-12-20T02:08:45;7;6;
36513;PMS5003;74739;46.796;9.824;2023-12-20T02:11:18;7;7;
36513;PMS5003;74739;46.796;9.824;2023-12-20T02:13:46;7;6;
36513;PMS5003;74739;46.796;9.824;2023-12-20T02:16:15;7;7;
36513;PMS5003;74739;46.796;9.824;2023-12-20T02:18:42;7;7;
36513;PMS5003;74739;46.796;9.824;2023-12-20T02:21:11;6;4;
36513;PMS5003;74739;46.796;9.824;2023-12-20T02:23:39;6;4;
36513;PMS5003;74739;46.796;9.824;2023-12-20T02:26:07;6;6;
36513;PMS5003;74739;46.796;9.824;2023-12-20T02:28:34;6;5;
36513;PMS5003;74739;46.796;9.824;2023-12-20T02:31:02;5;5;
36513;PMS5003;74739;46.796;9.824;2023-12-20T02:33:31;6;5;
36513;PMS5003;74739;46.796;9.824;2023-12-20T02:36:04;4;4;
36513;PMS5003;74739;46.796;9.824;2023-12-20T02:38:34;10;7;
36513;PMS5003;74739;46.796;9.824;2023-12-20T02:41:02;3;2;
36513;PMS5003;74739;46.796;9.824;2023-12-20T02:43:29;3;3;
36513;PMS5003;74739;46.796;9.824;2023-12-20T02:45:57;4;4;
36513;PMS5003;74739;46.796;9.824;2023-12-20T02:48:25;3;3;
36513;PMS5003;74739;46.796;9.824;2023-12-20T02:50:53;6;4;
36513;PMS5003;74739;46.796;9.824;2023-12-20T02:53:21;6;6;
36513;PMS5003;74739;46.796;9.824;2023-12-20T02:55:50;6;6;
36513;PMS5003;74739;46.796;9.824;2023-12-20T02:58:18;1;1;
36513;PMS5003;74739;46.796;9.824;2023-12-20T03:00:46;3;2;
36513;PMS5003;74739;46.796;9.824;2023-12-20T03:03:14;3;3;
36513;PMS5003;74739;46.796;9.824;2023-12-20T03:05:42;2;2;
36513;PMS5003;74739;46.796;9.824;2023-12-20T03:08:11;4;3;
36513;PMS5003;74739;46.796;9.824;2023-12-20T03:10:41;2;2;
36513;PMS5003;74739;46.796;9.824;2023-12-20T03:13:08;3;3;
36513;PMS5003;74739;46.796;9.824;2023-12-20T03:15:35;3;3;
36513;PMS5003;74739;46.796;9.824;2023-12-20T03:18:02;1;1;
36513;PMS5003;74739;46.796;9.824;2023-12-20T03:20:30;2;2;
36513;PMS5003;74739;46.796;9.824;2023-12-20T03:22:58;1;1;
36513;PMS5003;74739;46.796;9.824;2023-12-20T03:25:26;2;1;
36513;PMS5003;74739;46.796;9.824;2023-12-20T03:27:53;1;0;
36513;PMS5003;74739;46.796;9.824;2023-12-20T03:30:21;1;1;
36513;PMS5003;74739;46.796;9.824;2023-12-20T03:32:48;1;1;
36513;PMS5003;74739;46.796;9.824;2023-12-20T03:35:15;1;1;
36513;PMS5003;74739;46.796;9.824;2023-12-20T03:37:43;2;1;
36513;PMS5003;74739;46.796;9.824;2023-12-20T03:40:18;1;1;
36513;PMS5003;74739;46.796;9.824;2023-12-20T03:42:51;2;2;
36513;PMS5003;74739;46.796;9.824;2023-12-20T03:45:19;1;1;
36513;PMS5003;74739;46.796;9.824;2023-12-20T03:47:49;0;0;
36513;PMS5003;74739;46.796;9.824;2023-12-20T03:50:16;0;0;
36513;PMS5003;74739;46.796;9.824;2023-12-20T03:52:44;2;1;
36513;PMS5003;74739;46.796;9.824;2023-12-20T03:55:11;1;1;
36513;PMS5003;74739;46.796;9.824;2023-12-20T03:57:38;1;1;
36513;PMS5003;74739;46.796;9.824;2023-12-20T04:00:07;0;0;
36513;PMS5003;74739;46.796;9.824;2023-12-20T04:02:35;2;1;
36513;PMS5003;74739;46.796;9.824;2023-12-20T04:05:02;2;1;
36513;PMS5003;74739;46.796;9.824;2023-12-20T04:07:29;2;2;
36513;PMS5003;74739;46.796;9.824;2023-12-20T04:09:56;2;2;
36513;PMS5003;74739;46.796;9.824;2023-12-20T04:12:22;1;1;
36513;PMS5003;74739;46.796;9.824;2023-12-20T04:14:49;1;1;
36513;PMS5003;74739;46.796;9.824;2023-12-20T04:17:17;1;1;
36513;PMS5003;74739;46.796;9.824;2023-12-20T04:19:45;1;1;
36513;PMS5003;74739;46.796;9.824;2023-12-20T04:22:12;1;1;
36513;PMS5003;74739;46.796;9.824;2023-12-20T04:24:39;1;1;
36513;PMS5003;74739;46.796;9.824;2023-12-20T04:27:06;1;1;
36513;PMS5003;74739;46.796;9.824;2023-12-20T04:29:39;1;1;
36513;PMS5003;74739;46.796;9.824;2023-12-20T04:32:06;0;0;
36513;PMS5003;74739;46.796;9.824;2023-12-20T04:34:33;1;1;
36513;PMS5003;74739;46.796;9.824;2023-12-20T04:37:00;2;2;
36513;PMS5003;74739;46.796;9.824;2023-12-20T04:39:27;3;3;
36513;PMS5003;74739;46.796;9.824;2023-12-20T04:41:55;2;2;
36513;PMS5003;74739;46.796;9.824;2023-12-20T04:44:22;1;1;
36513;PMS5003;74739;46.796;9.824;2023-12-20T04:46:49;1;1;
36513;PMS5003;74739;46.796;9.824;2023-12-20T04:49:17;3;3;
36513;PMS5003;74739;46.796;9.824;2023-12-20T04:51:50;2;2;
36513;PMS5003;74739;46.796;9.824;2023-12-20T04:54:19;1;1;
36513;PMS5003;74739;46.796;9.824;2023-12-20T04:56:51;1;1;
36513;PMS5003;74739;46.796;9.824;2023-12-20T04:59:18;1;1;
36513;PMS5003;74739;46.796;9.824;2023-12-20T05:01:56;3;2;
36513;PMS5003;74739;46.796;9.824;2023-12-20T05:04:33;1;1;
36513;PMS5003;74739;46.796;9.824;2023-12-20T05:07:02;2;2;
36513;PMS5003;74739;46.796;9.824;2023-12-20T05:09:31;1;1;
36513;PMS5003;74739;46.796;9.824;2023-12-20T05:11:58;2;2;
36513;PMS5003;74739;46.796;9.824;2023-12-20T05:14:26;1;0;
36513;PMS5003;74739;46.796;9.824;2023-12-20T05:17:13;3;2;
36513;PMS5003;74739;46.796;9.824;2023-12-20T05:19:58;2;2;
36513;PMS5003;74739;46.796;9.824;2023-12-20T05:22:32;1;1;
36513;PMS5003;74739;46.796;9.824;2023-12-20T05:25:01;1;1;
36513;PMS5003;74739;46.796;9.824;2023-12-20T05:27:28;2;1;
36513;PMS5003;74739;46.796;9.824;2023-12-20T05:29:55;1;1;
36513;PMS5003;74739;46.796;9.824;2023-12-20T05:32:22;2;1;
36513;PMS5003;74739;46.796;9.824;2023-12-20T05:34:54;2;1;
36513;PMS5003;74739;46.796;9.824;2023-12-20T05:37:21;1;1;
36513;PMS5003;74739;46.796;9.824;2023-12-20T05:39:48;2;2;
36513;PMS5003;74739;46.796;9.824;2023-12-20T05:42:15;1;1;
36513;PMS5003;74739;46.796;9.824;2023-12-20T05:44:42;2;2;
36513;PMS5003;74739;46.796;9.824;2023-12-20T05:47:09;2;2;
36513;PMS5003;74739;46.796;9.824;2023-12-20T05:49:37;2;1;
36513;PMS5003;74739;46.796;9.824;2023-12-20T05:52:04;2;2;
36513;PMS5003;74739;46.796;9.824;2023-12-20T05:54:31;2;2;
36513;PMS5003;74739;46.796;9.824;2023-12-20T05:56:59;5;3;
36513;PMS5003;74739;46.796;9.824;2023-12-20T05:59:26;2;2;
36513;PMS5003;74739;46.796;9.824;2023-12-20T06:01:53;1;1;
36513;PMS5003;74739;46.796;9.824;2023-12-20T06:04:20;2;2;
36513;PMS5003;74739;46.796;9.824;2023-12-20T06:06:47;1;1;
36513;PMS5003;74739;46.796;9.824;2023-12-20T06:09:14;1;1;
36513;PMS5003;74739;46.796;9.824;2023-12-20T06:11:42;2;1;
36513;PMS5003;74739;46.796;9.824;2023-12-20T06:14:08;1;1;
36513;PMS5003;74739;46.796;9.824;2023-12-20T06:16:36;3;2;
36513;PMS5003;74739;46.796;9.824;2023-12-20T06:19:02;3;3;
36513;PMS5003;74739;46.796;9.824;2023-12-20T06:21:29;2;2;
36513;PMS5003;74739;46.796;9.824;2023-12-20T06:23:58;2;2;
36513;PMS5003;74739;46.796;9.824;2023-12-20T06:26:26;1;1;
36513;PMS5003;74739;46.796;9.824;2023-12-20T06:28:53;1;1;
36513;PMS5003;74739;46.796;9.824;2023-12-20T06:31:20;3;3;
36513;PMS5003;74739;46.796;9.824;2023-12-20T06:33:48;3;3;
36513;PMS5003;74739;46.796;9.824;2023-12-20T06:36:15;2;2;
36513;PMS5003;74739;46.796;9.824;2023-12-20T06:38:42;4;4;
36513;PMS5003;74739;46.796;9.824;2023-12-20T06:41:12;2;1;
36513;PMS5003;74739;46.796;9.824;2023-12-20T06:43:39;2;2;
36513;PMS5003;74739;46.796;9.824;2023-12-20T06:46:06;3;3;
36513;PMS5003;74739;46.796;9.824;2023-12-20T06:48:33;7;7;
36513;PMS5003;74739;46.796;9.824;2023-12-20T06:51:00;4;4;
36513;PMS5003;74739;46.796;9.824;2023-12-20T06:53:28;5;4;
36513;PMS5003;74739;46.796;9.824;2023-12-20T06:55:55;2;2;
36513;PMS5003;74739;46.796;9.824;2023-12-20T06:58:22;4;2;
36513;PMS5003;74739;46.796;9.824;2023-12-20T07:00:49;3;3;
36513;PMS5003;74739;46.796;9.824;2023-12-20T07:03:17;3;3;
36513;PMS5003;74739;46.796;9.824;2023-12-20T07:05:44;3;3;
36513;PMS5003;74739;46.796;9.824;2023-12-20T07:08:11;3;3;
36513;PMS5003;74739;46.796;9.824;2023-12-20T07:10:37;3;3;
36513;PMS5003;74739;46.796;9.824;2023-12-20T07:13:04;3;3;
36513;PMS5003;74739;46.796;9.824;2023-12-20T07:15:31;3;2;
36513;PMS5003;74739;46.796;9.824;2023-12-20T07:17:58;2;2;
36513;PMS5003;74739;46.796;9.824;2023-12-20T07:20:27;4;3;
36513;PMS5003;74739;46.796;9.824;2023-12-20T07:22:54;4;4;
36513;PMS5003;74739;46.796;9.824;2023-12-20T07:25:21;3;3;
36513;PMS5003;74739;46.796;9.824;2023-12-20T07:27:48;1;1;
36513;PMS5003;74739;46.796;9.824;2023-12-20T07:30:15;3;2;
36513;PMS5003;74739;46.796;9.824;2023-12-20T07:32:41;2;2;
36513;PMS5003;74739;46.796;9.824;2023-12-20T07:35:08;3;3;
36513;PMS5003;74739;46.796;9.824;2023-12-20T07:37:35;3;3;
36513;PMS5003;74739;46.796;9.824;2023-12-20T07:40:02;3;3;
36513;PMS5003;74739;46.796;9.824;2023-12-20T07:42:30;3;3;
36513;PMS5003;74739;46.796;9.824;2023-12-20T07:44:57;6;2;
36513;PMS5003;74739;46.796;9.824;2023-12-20T07:47:25;3;3;
36513;PMS5003;74739;46.796;9.824;2023-12-20T07:49:52;1;1;
36513;PMS5003;74739;46.796;9.824;2023-12-20T07:52:19;3;3;
36513;PMS5003;74739;46.796;9.824;2023-12-20T07:54:46;3;3;
36513;PMS5003;74739;46.796;9.824;2023-12-20T07:57:13;6;4;
36513;PMS5003;74739;46.796;9.824;2023-12-20T07:59:42;2;2;
36513;PMS5003;74739;46.796;9.824;2023-12-20T08:02:10;3;3;
36513;PMS5003;74739;46.796;9.824;2023-12-20T08:04:36;4;3;
36513;PMS5003;74739;46.796;9.824;2023-12-20T08:07:04;3;3;
36513;PMS5003;74739;46.796;9.824;2023-12-20T08:09:37;3;3;
36513;PMS5003;74739;46.796;9.824;2023-12-20T08:12:04;3;3;
36513;PMS5003;74739;46.796;9.824;2023-12-20T08:14:32;5;4;
36513;PMS5003;74739;46.796;9.824;2023-12-20T08:16:59;5;3;
36513;PMS5003;74739;46.796;9.824;2023-12-20T08:19:26;6;6;
36513;PMS5003;74739;46.796;9.824;2023-12-20T08:21:53;6;6;
36513;PMS5003;74739;46.796;9.824;2023-12-20T08:24:20;4;4;
36513;PMS5003;74739;46.796;9.824;2023-12-20T08:26:47;4;4;
36513;PMS5003;74739;46.796;9.824;2023-12-20T08:29:14;9;7;
36513;PMS5003;74739;46.796;9.824;2023-12-20T08:31:41;6;4;
36513;PMS5003;74739;46.796;9.824;2023-12-20T08:34:10;6;6;
36513;PMS5003;74739;46.796;9.824;2023-12-20T08:36:39;6;6;
36513;PMS5003;74739;46.796;9.824;2023-12-20T08:39:09;7;4;
36513;PMS5003;74739;46.796;9.824;2023-12-20T08:41:37;7;7;
36513;PMS5003;74739;46.796;9.824;2023-12-20T08:44:04;4;4;
36513;PMS5003;74739;46.796;9.824;2023-12-20T08:46:31;6;6;
36513;PMS5003;74739;46.796;9.824;2023-12-20T08:48:58;6;6;
36513;PMS5003;74739;46.796;9.824;2023-12-20T08:51:25;4;4;
36513;PMS5003;74739;46.796;9.824;2023-12-20T08:53:53;4;4;
36513;PMS5003;74739;46.796;9.824;2023-12-20T08:56:19;4;4;
36513;PMS5003;74739;46.796;9.824;2023-12-20T08:58:46;6;6;
36513;PMS5003;74739;46.796;9.824;2023-12-20T09:01:15;4;4;
36513;PMS5003;74739;46.796;9.824;2023-12-20T09:03:43;5;5;
36513;PMS5003;74739;46.796;9.824;2023-12-20T09:06:10;8;8;
36513;PMS5003;74739;46.796;9.824;2023-12-20T09:08:37;7;4;
36513;PMS5003;74739;46.796;9.824;2023-12-20T09:11:04;4;4;
36513;PMS5003;74739;46.796;9.824;2023-12-20T09:13:30;7;5;
36513;PMS5003;74739;46.796;9.824;2023-12-20T09:15:58;5;5;
36513;PMS5003;74739;46.796;9.824;2023-12-20T09:18:24;7;6;
36513;PMS5003;74739;46.796;9.824;2023-12-20T09:20:52;6;6;
36513;PMS5003;74739;46.796;9.824;2023-12-20T09:23:20;6;6;
36513;PMS5003;74739;46.796;9.824;2023-12-20T09:25:47;9;8;
36513;PMS5003;74739;46.796;9.824;2023-12-20T09:28:14;6;4;
36513;PMS5003;74739;46.796;9.824;2023-12-20T09:30:41;4;4;
36513;PMS5003;74739;46.796;9.824;2023-12-20T09:33:09;8;7;
36513;PMS5003;74739;46.796;9.824;2023-12-20T09:35:36;5;5;
36513;PMS5003;74739;46.796;9.824;2023-12-20T09:38:03;9;9;
36513;PMS5003;74739;46.796;9.824;2023-12-20T09:40:32;8;5;
36513;PMS5003;74739;46.796;9.824;2023-12-20T09:43:03;7;6;
36513;PMS5003;74739;46.796;9.824;2023-12-20T09:45:31;7;5;
36513;PMS5003;74739;46.796;9.824;2023-12-20T09:47:58;8;7;
36513;PMS5003;74739;46.796;9.824;2023-12-20T09:50:26;5;5;
36513;PMS5003;74739;46.796;9.824;2023-12-20T09:52:54;6;6;
36513;PMS5003;74739;46.796;9.824;2023-12-20T09:55:24;7;6;
36513;PMS5003;74739;46.796;9.824;2023-12-20T09:57:52;7;7;
36513;PMS5003;74739;46.796;9.824;2023-12-20T10:00:20;5;5;
36513;PMS5003;74739;46.796;9.824;2023-12-20T10:02:51;5;4;
36513;PMS5003;74739;46.796;9.824;2023-12-20T10:05:26;4;4;
36513;PMS5003;74739;46.796;9.824;2023-12-20T10:07:55;5;5;
36513;PMS5003;74739;46.796;9.824;2023-12-20T10:10:22;8;7;
36513;PMS5003;74739;46.796;9.824;2023-12-20T10:13:01;7;7;
36513;PMS5003;74739;46.796;9.824;2023-12-20T10:15:30;5;5;
36513;PMS5003;74739;46.796;9.824;2023-12-20T10:18:00;7;5;
36513;PMS5003;74739;46.796;9.824;2023-12-20T10:20:27;7;5;
36513;PMS5003;74739;46.796;9.824;2023-12-20T10:22:55;5;5;
36513;PMS5003;74739;46.796;9.824;2023-12-20T10:25:23;5;5;
36513;PMS5003;74739;46.796;9.824;2023-12-20T10:28:07;5;5;
36513;PMS5003;74739;46.796;9.824;2023-12-20T10:30:36;7;5;
36513;PMS5003;74739;46.796;9.824;2023-12-20T10:33:05;5;4;
36513;PMS5003;74739;46.796;9.824;2023-12-20T10:35:32;2;2;
36513;PMS5003;74739;46.796;9.824;2023-12-20T10:38:00;3;2;
36513;PMS5003;74739;46.796;9.824;2023-12-20T10:40:30;2;1;
36513;PMS5003;74739;46.796;9.824;2023-12-20T10:42:58;2;2;
36513;PMS5003;74739;46.796;9.824;2023-12-20T10:45:27;2;1;
36513;PMS5003;74739;46.796;9.824;2023-12-20T10:47:54;2;2;
36513;PMS5003;74739;46.796;9.824;2023-12-20T10:50:22;2;1;
36513;PMS5003;74739;46.796;9.824;2023-12-20T10:52:50;2;2;
36513;PMS5003;74739;46.796;9.824;2023-12-20T10:55:17;2;2;
36513;PMS5003;74739;46.796;9.824;2023-12-20T10:57:44;1;1;
36513;PMS5003;74739;46.796;9.824;2023-12-20T11:00:14;2;2;
36513;PMS5003;74739;46.796;9.824;2023-12-20T11:02:43;2;1;
36513;PMS5003;74739;46.796;9.824;2023-12-20T11:05:13;2;2;
36513;PMS5003;74739;46.796;9.824;2023-12-20T11:07:50;1;1;
36513;PMS5003;74739;46.796;9.824;2023-12-20T11:10:23;2;2;
36513;PMS5003;74739;46.796;9.824;2023-12-20T11:12:57;0;0;
36513;PMS5003;74739;46.796;9.824;2023-12-20T11:15:31;1;1;
36513;PMS5003;74739;46.796;9.824;2023-12-20T11:17:58;2;2;
36513;PMS5003;74739;46.796;9.824;2023-12-20T11:20:35;1;1;
36513;PMS5003;74739;46.796;9.824;2023-12-20T11:23:03;2;2;
36513;PMS5003;74739;46.796;9.824;2023-12-20T11:25:32;1;1;
36513;PMS5003;74739;46.796;9.824;2023-12-20T11:28:13;3;3;
36513;PMS5003;74739;46.796;9.824;2023-12-20T11:30:41;2;2;
36513;PMS5003;74739;46.796;9.824;2023-12-20T11:33:12;3;2;
36513;PMS5003;74739;46.796;9.824;2023-12-20T11:35:39;1;1;
36513;PMS5003;74739;46.796;9.824;2023-12-20T11:38:07;1;1;
36513;PMS5003;74739;46.796;9.824;2023-12-20T11:40:35;2;2;
36513;PMS5003;74739;46.796;9.824;2023-12-20T11:43:03;2;1;
36513;PMS5003;74739;46.796;9.824;2023-12-20T11:45:30;2;2;
36513;PMS5003;74739;46.796;9.824;2023-12-20T11:47:57;0;0;
36513;PMS5003;74739;46.796;9.824;2023-12-20T11:50:25;2;1;
36513;PMS5003;74739;46.796;9.824;2023-12-20T11:52:52;2;2;
36513;PMS5003;74739;46.796;9.824;2023-12-20T11:55:20;1;1;
36513;PMS5003;74739;46.796;9.824;2023-12-20T11:57:46;2;2;
36513;PMS5003;74739;46.796;9.824;2023-12-20T12:00:15;2;2;
36513;PMS5003;74739;46.796;9.824;2023-12-20T12:02:42;1;1;
36513;PMS5003;74739;46.796;9.824;2023-12-20T12:05:09;2;2;
36513;PMS5003;74739;46.796;9.824;2023-12-20T12:07:36;2;2;
36513;PMS5003;74739;46.796;9.824;2023-12-20T12:10:03;2;2;
36513;PMS5003;74739;46.796;9.824;2023-12-20T12:12:30;1;1;
36513;PMS5003;74739;46.796;9.824;2023-12-20T12:14:57;2;2;
36513;PMS5003;74739;46.796;9.824;2023-12-20T12:17:25;2;2;
36513;PMS5003;74739;46.796;9.824;2023-12-20T12:19:52;3;3;
36513;PMS5003;74739;46.796;9.824;2023-12-20T12:22:28;2;1;
36513;PMS5003;74739;46.796;9.824;2023-12-20T12:24:58;2;2;
36513;PMS5003;74739;46.796;9.824;2023-12-20T12:27:38;1;1;
36513;PMS5003;74739;46.796;9.824;2023-12-20T12:30:08;1;1;
36513;PMS5003;74739;46.796;9.824;2023-12-20T12:32:37;2;2;
36513;PMS5003;74739;46.796;9.824;2023-12-20T12:35:05;3;2;
36513;PMS5003;74739;46.796;9.824;2023-12-20T12:37:33;1;1;
36513;PMS5003;74739;46.796;9.824;2023-12-20T12:40:01;0;0;
36513;PMS5003;74739;46.796;9.824;2023-12-20T12:42:30;1;1;
36513;PMS5003;74739;46.796;9.824;2023-12-20T12:44:57;2;1;
36513;PMS5003;74739;46.796;9.824;2023-12-20T12:47:24;2;1;
36513;PMS5003;74739;46.796;9.824;2023-12-20T12:49:51;0;0;
36513;PMS5003;74739;46.796;9.824;2023-12-20T12:52:18;2;1;
36513;PMS5003;74739;46.796;9.824;2023-12-20T12:54:44;1;1;
36513;PMS5003;74739;46.796;9.824;2023-12-20T12:57:11;1;1;
36513;PMS5003;74739;46.796;9.824;2023-12-20T12:59:40;1;1;
36513;PMS5003;74739;46.796;9.824;2023-12-20T13:02:08;1;1;
36513;PMS5003;74739;46.796;9.824;2023-12-20T13:04:35;1;1;
36513;PMS5003;74739;46.796;9.824;2023-12-20T13:07:01;2;1;
36513;PMS5003;74739;46.796;9.824;2023-12-20T13:09:28;1;1;
36513;PMS5003;74739;46.796;9.824;2023-12-20T13:11:55;1;1;
36513;PMS5003;74739;46.796;9.824;2023-12-20T13:14:23;3;2;
36513;PMS5003;74739;46.796;9.824;2023-12-20T13:16:50;2;2;
36513;PMS5003;74739;46.796;9.824;2023-12-20T13:19:17;2;2;
36513;PMS5003;74739;46.796;9.824;2023-12-20T13:21:44;0;0;
36513;PMS5003;74739;46.796;9.824;2023-12-20T13:24:10;1;1;
36513;PMS5003;74739;46.796;9.824;2023-12-20T13:26:37;1;1;
36513;PMS5003;74739;46.796;9.824;2023-12-20T13:29:04;1;1;
36513;PMS5003;74739;46.796;9.824;2023-12-20T13:31:31;1;1;
36513;PMS5003;74739;46.796;9.824;2023-12-20T13:33:58;2;2;
36513;PMS5003;74739;46.796;9.824;2023-12-20T13:36:25;0;0;
36513;PMS5003;74739;46.796;9.824;2023-12-20T13:38:52;1;1;
36513;PMS5003;74739;46.796;9.824;2023-12-20T13:41:18;2;1;
36513;PMS5003;74739;46.796;9.824;2023-12-20T13:43:45;2;1;
36513;PMS5003;74739;46.796;9.824;2023-12-20T13:46:12;0;0;
36513;PMS5003;74739;46.796;9.824;2023-12-20T13:48:39;1;1;
36513;PMS5003;74739;46.796;9.824;2023-12-20T13:51:06;1;1;
36513;PMS5003;74739;46.796;9.824;2023-12-20T13:53:33;2;2;
36513;PMS5003;74739;46.796;9.824;2023-12-20T13:56:01;2;2;
36513;PMS5003;74739;46.796;9.824;2023-12-20T13:58:28;1;1;
36513;PMS5003;74739;46.796;9.824;2023-12-20T14:00:55;3;3;
36513;PMS5003;74739;46.796;9.824;2023-12-20T14:03:22;2;2;
36513;PMS5003;74739;46.796;9.824;2023-12-20T14:05:49;1;1;
36513;PMS5003;74739;46.796;9.824;2023-12-20T14:08:16;1;1;
36513;PMS5003;74739;46.796;9.824;2023-12-20T14:10:43;1;1;
36513;PMS5003;74739;46.796;9.824;2023-12-20T14:13:09;1;1;
36513;PMS5003;74739;46.796;9.824;2023-12-20T14:15:36;1;1;
36513;PMS5003;74739;46.796;9.824;2023-12-20T14:18:04;1;1;
36513;PMS5003;74739;46.796;9.824;2023-12-20T14:20:32;2;2;
36513;PMS5003;74739;46.796;9.824;2023-12-20T14:22:59;2;2;
36513;PMS5003;74739;46.796;9.824;2023-12-20T14:25:27;1;1;
36513;PMS5003;74739;46.796;9.824;2023-12-20T14:27:54;2;2;
36513;PMS5003;74739;46.796;9.824;2023-12-20T14:30:20;1;1;
36513;PMS5003;74739;46.796;9.824;2023-12-20T14:32:47;3;3;
36513;PMS5003;74739;46.796;9.824;2023-12-20T14:35:14;1;1;
36513;PMS5003;74739;46.796;9.824;2023-12-20T14:37:42;3;3;
36513;PMS5003;74739;46.796;9.824;2023-12-20T14:40:09;1;1;
36513;PMS5003;74739;46.796;9.824;2023-12-20T14:42:37;3;3;
36513;PMS5003;74739;46.796;9.824;2023-12-20T14:45:05;2;1;
36513;PMS5003;74739;46.796;9.824;2023-12-20T14:47:32;2;2;
36513;PMS5003;74739;46.796;9.824;2023-12-20T14:50:01;3;3;
36513;PMS5003;74739;46.796;9.824;2023-12-20T14:52:29;1;1;
36513;PMS5003;74739;46.796;9.824;2023-12-20T14:54:56;1;1;
36513;PMS5003;74739;46.796;9.824;2023-12-20T14:57:22;1;1;
36513;PMS5003;74739;46.796;9.824;2023-12-20T14:59:49;2;2;
36513;PMS5003;74739;46.796;9.824;2023-12-20T15:02:16;3;3;
36513;PMS5003;74739;46.796;9.824;2023-12-20T15:04:43;1;1;
36513;PMS5003;74739;46.796;9.824;2023-12-20T15:07:10;2;2;
36513;PMS5003;74739;46.796;9.824;2023-12-20T15:09:37;1;1;
36513;PMS5003;74739;46.796;9.824;2023-12-20T15:12:04;1;1;
36513;PMS5003;74739;46.796;9.824;2023-12-20T15:14:32;3;3;
36513;PMS5003;74739;46.796;9.824;2023-12-20T15:16:59;3;3;
36513;PMS5003;74739;46.796;9.824;2023-12-20T15:19:27;3;2;
36513;PMS5003;74739;46.796;9.824;2023-12-20T15:21:54;2;2;
36513;PMS5003;74739;46.796;9.824;2023-12-20T15:24:21;3;2;
36513;PMS5003;74739;46.796;9.824;2023-12-20T15:26:47;4;4;
36513;PMS5003;74739;46.796;9.824;2023-12-20T15:29:14;2;1;
36513;PMS5003;74739;46.796;9.824;2023-12-20T15:31:42;3;2;
36513;PMS5003;74739;46.796;9.824;2023-12-20T15:34:09;2;2;
36513;PMS5003;74739;46.796;9.824;2023-12-20T15:36:36;2;2;
36513;PMS5003;74739;46.796;9.824;2023-12-20T15:39:03;2;2;
36513;PMS5003;74739;46.796;9.824;2023-12-20T15:41:30;3;2;
36513;PMS5003;74739;46.796;9.824;2023-12-20T15:43:57;3;3;
36513;PMS5003;74739;46.796;9.824;2023-12-20T15:46:24;3;2;
36513;PMS5003;74739;46.796;9.824;2023-12-20T15:48:51;3;3;
36513;PMS5003;74739;46.796;9.824;2023-12-20T15:51:19;3;3;
36513;PMS5003;74739;46.796;9.824;2023-12-20T15:53:47;2;2;
36513;PMS5003;74739;46.796;9.824;2023-12-20T15:56:15;1;1;
36513;PMS5003;74739;46.796;9.824;2023-12-20T15:58:42;1;1;
36513;PMS5003;74739;46.796;9.824;2023-12-20T16:01:09;1;1;
36513;PMS5003;74739;46.796;9.824;2023-12-20T16:03:36;4;4;
36513;PMS5003;74739;46.796;9.824;2023-12-20T16:06:03;2;2;
36513;PMS5003;74739;46.796;9.824;2023-12-20T16:08:31;3;3;
36513;PMS5003;74739;46.796;9.824;2023-12-20T16:10:58;2;2;
36513;PMS5003;74739;46.796;9.824;2023-12-20T16:13:25;2;2;
36513;PMS5003;74739;46.796;9.824;2023-12-20T16:15:52;1;1;
36513;PMS5003;74739;46.796;9.824;2023-12-20T16:18:19;1;1;
36513;PMS5003;74739;46.796;9.824;2023-12-20T16:20:46;2;2;
36513;PMS5003;74739;46.796;9.824;2023-12-20T16:23:13;4;4;
36513;PMS5003;74739;46.796;9.824;2023-12-20T16:25:40;2;1;
36513;PMS5003;74739;46.796;9.824;2023-12-20T16:28:07;3;3;
36513;PMS5003;74739;46.796;9.824;2023-12-20T16:30:34;2;2;
36513;PMS5003;74739;46.796;9.824;2023-12-20T16:33:01;2;2;
36513;PMS5003;74739;46.796;9.824;2023-12-20T16:35:28;3;3;
36513;PMS5003;74739;46.796;9.824;2023-12-20T16:37:55;4;4;
36513;PMS5003;74739;46.796;9.824;2023-12-20T16:40:22;2;2;
36513;PMS5003;74739;46.796;9.824;2023-12-20T16:42:49;3;3;
36513;PMS5003;74739;46.796;9.824;2023-12-20T16:45:16;4;3;
36513;PMS5003;74739;46.796;9.824;2023-12-20T16:47:43;3;3;
36513;PMS5003;74739;46.796;9.824;2023-12-20T16:50:10;3;3;
36513;PMS5003;74739;46.796;9.824;2023-12-20T16:52:37;3;2;
36513;PMS5003;74739;46.796;9.824;2023-12-20T16:55:04;3;3;